sensor_id;sensor_type;location;lat;lon;timestamp;temperature;humidity
15564;DHT22;7883;52.554;13.364;2023-04-25T00:00:08;11.00;99.90
15564;DHT22;7883;52.554;13.364;2023-04-25T00:02:35;11.10;99.90
15564;DHT22;7883;52.554;13.364;2023-04-25T00:05:02;11.10;99.90
15564;DHT22;7883;52.554;13.364;2023-04-25T00:07:34;11.10;99.90
15564;DHT22;7883;52.554;13.364;2023-04-25T00:10:02;11.10;99.90
15564;DHT22;7883;52.554;13.364;2023-04-25T00:12:29;11.10;99.90
15564;DHT22;7883;52.554;13.364;2023-04-25T00:14:56;11.20;99.90
15564;DHT22;7883;52.554;13.364;2023-04-25T00:17:23;11.10;99.90
15564;DHT22;7883;52.554;13.364;2023-04-25T00:19:51;11.00;99.90
15564;DHT22;7883;52.554;13.364;2023-04-25T00:22:18;11.10;99.90
15564;DHT22;7883;52.554;13.364;2023-04-25T00:24:46;11.10;99.90
15564;DHT22;7883;52.554;13.364;2023-04-25T00:27:13;11.10;99.90
15564;DHT22;7883;52.554;13.364;2023-04-25T00:29:40;11.00;99.90
15564;DHT22;7883;52.554;13.364;2023-04-25T00:32:09;11.00;99.90
15564;DHT22;7883;52.554;13.364;2023-04-25T00:34:39;11.00;99.90
15564;DHT22;7883;52.554;13.364;2023-04-25T00:37:06;10.90;99.90
15564;DHT22;7883;52.554;13.364;2023-04-25T00:39:34;10.90;99.90
15564;DHT22;7883;52.554;13.364;2023-04-25T00:42:05;10.90;99.90
15564;DHT22;7883;52.554;13.364;2023-04-25T00:44:34;10.80;99.90
15564;DHT22;7883;52.554;13.364;2023-04-25T00:47:02;10.90;99.90
15564;DHT22;7883;52.554;13.364;2023-04-25T00:49:29;10.90;99.90
15564;DHT22;7883;52.554;13.364;2023-04-25T00:51:56;10.90;99.90
15564;DHT22;7883;52.554;13.364;2023-04-25T00:54:23;10.80;99.90
15564;DHT22;7883;52.554;13.364;2023-04-25T00:56:50;10.80;99.90
15564;DHT22;7883;52.554;13.364;2023-04-25T00:59:19;10.80;99.90
15564;DHT22;7883;52.554;13.364;2023-04-25T01:01:47;10.80;99.90
15564;DHT22;7883;52.554;13.364;2023-04-25T01:04:14;10.90;99.90
15564;DHT22;7883;52.554;13.364;2023-04-25T01:06:41;10.90;99.90
15564;DHT22;7883;52.554;13.364;2023-04-25T01:09:08;10.90;99.90
15564;DHT22;7883;52.554;13.364;2023-04-25T01:11:35;10.90;99.90
15564;DHT22;7883;52.554;13.364;2023-04-25T01:14:02;10.80;99.90
15564;DHT22;7883;52.554;13.364;2023-04-25T01:16:31;10.70;99.90
15564;DHT22;7883;52.554;13.364;2023-04-25T01:18:59;10.70;99.90
15564;DHT22;7883;52.554;13.364;2023-04-25T01:21:27;10.60;99.90
15564;DHT22;7883;52.554;13.364;2023-04-25T01:23:55;10.60;99.90
15564;DHT22;7883;52.554;13.364;2023-04-25T01:26:22;10.60;99.90
15564;DHT22;7883;52.554;13.364;2023-04-25T01:28:50;10.70;99.90
15564;DHT22;7883;52.554;13.364;2023-04-25T01:31:19;10.70;99.90
15564;DHT22;7883;52.554;13.364;2023-04-25T01:33:46;10.70;99.90
15564;DHT22;7883;52.554;13.364;2023-04-25T01:36:14;10.60;99.90
15564;DHT22;7883;52.554;13.364;2023-04-25T01:38:43;10.70;99.90
15564;DHT22;7883;52.554;13.364;2023-04-25T01:41:13;10.60;99.90
15564;DHT22;7883;52.554;13.364;2023-04-25T01:43:48;10.70;99.90
15564;DHT22;7883;52.554;13.364;2023-04-25T01:46:16;10.60;99.90
15564;DHT22;7883;52.554;13.364;2023-04-25T01:48:45;10.60;99.90
15564;DHT22;7883;52.554;13.364;2023-04-25T01:51:12;10.60;99.90
15564;DHT22;7883;52.554;13.364;2023-04-25T01:53:39;10.60;99.90
15564;DHT22;7883;52.554;13.364;2023-04-25T01:56:07;10.70;99.90
15564;DHT22;7883;52.554;13.364;2023-04-25T01:58:36;10.70;99.90
15564;DHT22;7883;52.554;13.364;2023-04-25T02:01:03;10.70;99.90
15564;DHT22;7883;52.554;13.364;2023-04-25T02:03:31;10.70;99.90
15564;DHT22;7883;52.554;13.364;2023-04-25T02:05:58;10.70;99.90
15564;DHT22;7883;52.554;13.364;2023-04-25T02:08:25;10.70;99.90
15564;DHT22;7883;52.554;13.364;2023-04-25T02:10:52;10.70;99.90
15564;DHT22;7883;52.554;13.364;2023-04-25T02:13:23;10.50;99.90
15564;DHT22;7883;52.554;13.364;2023-04-25T02:15:50;10.60;99.90
15564;DHT22;7883;52.554;13.364;2023-04-25T02:18:17;10.60;99.90
15564;DHT22;7883;52.554;13.364;2023-04-25T02:20:44;10.60;99.90
15564;DHT22;7883;52.554;13.364;2023-04-25T02:23:11;10.60;99.90
15564;DHT22;7883;52.554;13.364;2023-04-25T02:25:38;10.60;99.90
15564;DHT22;7883;52.554;13.364;2023-04-25T02:28:05;10.50;99.90
15564;DHT22;7883;52.554;13.364;2023-04-25T02:30:33;10.60;99.90
15564;DHT22;7883;52.554;13.364;2023-04-25T02:33:00;10.60;99.90
15564;DHT22;7883;52.554;13.364;2023-04-25T02:35:28;10.60;99.90
15564;DHT22;7883;52.554;13.364;2023-04-25T02:37:54;10.50;99.90
15564;DHT22;7883;52.554;13.364;2023-04-25T02:40:28;10.60;99.90
15564;DHT22;7883;52.554;13.364;2023-04-25T02:42:55;10.50;99.90
15564;DHT22;7883;52.554;13.364;2023-04-25T02:45:22;10.50;99.90
15564;DHT22;7883;52.554;13.364;2023-04-25T02:47:50;10.60;99.90
15564;DHT22;7883;52.554;13.364;2023-04-25T02:50:17;10.50;99.90
15564;DHT22;7883;52.554;13.364;2023-04-25T02:52:45;10.50;99.90
15564;DHT22;7883;52.554;13.364;2023-04-25T02:55:12;10.50;99.90
15564;DHT22;7883;52.554;13.364;2023-04-25T02:57:40;10.50;99.90
15564;DHT22;7883;52.554;13.364;2023-04-25T03:00:07;10.60;99.90
15564;DHT22;7883;52.554;13.364;2023-04-25T03:02:37;10.40;99.90
15564;DHT22;7883;52.554;13.364;2023-04-25T03:05:05;10.40;99.90
15564;DHT22;7883;52.554;13.364;2023-04-25T03:07:32;10.40;99.90
15564;DHT22;7883;52.554;13.364;2023-04-25T03:09:59;10.50;99.90
15564;DHT22;7883;52.554;13.364;2023-04-25T03:12:26;10.50;99.90
15564;DHT22;7883;52.554;13.364;2023-04-25T03:14:53;10.50;99.90
15564;DHT22;7883;52.554;13.364;2023-04-25T03:17:20;10.50;99.90
15564;DHT22;7883;52.554;13.364;2023-04-25T03:19:47;10.50;99.90
15564;DHT22;7883;52.554;13.364;2023-04-25T03:22:15;10.60;99.90
15564;DHT22;7883;52.554;13.364;2023-04-25T03:24:44;10.60;99.90
15564;DHT22;7883;52.554;13.364;2023-04-25T03:27:11;10.40;99.90
15564;DHT22;7883;52.554;13.364;2023-04-25T03:29:38;10.50;99.90
15564;DHT22;7883;52.554;13.364;2023-04-25T03:32:06;10.50;99.90
15564;DHT22;7883;52.554;13.364;2023-04-25T03:34:32;10.50;99.90
15564;DHT22;7883;52.554;13.364;2023-04-25T03:36:59;10.40;99.90
15564;DHT22;7883;52.554;13.364;2023-04-25T03:39:28;10.50;99.90
15564;DHT22;7883;52.554;13.364;2023-04-25T03:41:55;10.50;99.90
15564;DHT22;7883;52.554;13.364;2023-04-25T03:44:22;10.60;99.90
15564;DHT22;7883;52.554;13.364;2023-04-25T03:46:51;10.50;99.90
15564;DHT22;7883;52.554;13.364;2023-04-25T03:49:18;10.50;99.90
15564;DHT22;7883;52.554;13.364;2023-04-25T03:51:45;10.50;99.90
15564;DHT22;7883;52.554;13.364;2023-04-25T03:54:11;10.50;99.90
15564;DHT22;7883;52.554;13.364;2023-04-25T03:56:40;10.40;99.90
15564;DHT22;7883;52.554;13.364;2023-04-25T03:59:07;10.50;99.90
15564;DHT22;7883;52.554;13.364;2023-04-25T04:01:34;10.40;99.90
15564;DHT22;7883;52.554;13.364;2023-04-25T04:04:01;10.40;99.90
15564;DHT22;7883;52.554;13.364;2023-04-25T04:06:28;10.30;99.90
15564;DHT22;7883;52.554;13.364;2023-04-25T04:08:55;10.20;99.90
15564;DHT22;7883;52.554;13.364;2023-04-25T04:11:22;10.20;99.90
15564;DHT22;7883;52.554;13.364;2023-04-25T04:13:50;10.30;99.90
15564;DHT22;7883;52.554;13.364;2023-04-25T04:16:17;10.30;99.90
15564;DHT22;7883;52.554;13.364;2023-04-25T04:18:45;10.20;99.90
15564;DHT22;7883;52.554;13.364;2023-04-25T04:21:12;10.30;99.90
15564;DHT22;7883;52.554;13.364;2023-04-25T04:23:39;10.40;99.90
15564;DHT22;7883;52.554;13.364;2023-04-25T04:26:06;10.40;99.90
15564;DHT22;7883;52.554;13.364;2023-04-25T04:28:34;10.40;99.90
15564;DHT22;7883;52.554;13.364;2023-04-25T04:31:03;10.50;99.90
15564;DHT22;7883;52.554;13.364;2023-04-25T04:33:30;10.40;99.90
15564;DHT22;7883;52.554;13.364;2023-04-25T04:35:57;10.50;99.90
15564;DHT22;7883;52.554;13.364;2023-04-25T04:38:24;10.50;99.90
15564;DHT22;7883;52.554;13.364;2023-04-25T04:40:51;10.40;99.90
15564;DHT22;7883;52.554;13.364;2023-04-25T04:43:19;10.40;99.90
15564;DHT22;7883;52.554;13.364;2023-04-25T04:45:46;10.30;99.90
15564;DHT22;7883;52.554;13.364;2023-04-25T04:48:14;10.30;99.90
15564;DHT22;7883;52.554;13.364;2023-04-25T04:50:43;10.30;99.90
15564;DHT22;7883;52.554;13.364;2023-04-25T04:53:11;10.40;99.90
15564;DHT22;7883;52.554;13.364;2023-04-25T04:55:38;10.30;99.90
15564;DHT22;7883;52.554;13.364;2023-04-25T04:58:06;10.40;99.90
15564;DHT22;7883;52.554;13.364;2023-04-25T05:00:34;10.40;99.90
15564;DHT22;7883;52.554;13.364;2023-04-25T05:03:01;10.40;99.90
15564;DHT22;7883;52.554;13.364;2023-04-25T05:05:30;10.30;99.90
15564;DHT22;7883;52.554;13.364;2023-04-25T05:07:56;10.40;99.90
15564;DHT22;7883;52.554;13.364;2023-04-25T05:10:24;10.50;99.90
15564;DHT22;7883;52.554;13.364;2023-04-25T05:12:50;10.50;99.90
15564;DHT22;7883;52.554;13.364;2023-04-25T05:15:18;10.40;99.90
15564;DHT22;7883;52.554;13.364;2023-04-25T05:17:45;10.30;99.90
15564;DHT22;7883;52.554;13.364;2023-04-25T05:20:12;10.30;99.90
15564;DHT22;7883;52.554;13.364;2023-04-25T05:22:40;10.40;99.90
15564;DHT22;7883;52.554;13.364;2023-04-25T05:25:09;10.40;99.90
15564;DHT22;7883;52.554;13.364;2023-04-25T05:27:36;10.30;99.90
15564;DHT22;7883;52.554;13.364;2023-04-25T05:30:03;10.30;99.90
15564;DHT22;7883;52.554;13.364;2023-04-25T05:32:32;10.50;99.90
15564;DHT22;7883;52.554;13.364;2023-04-25T05:35:00;10.40;99.90
15564;DHT22;7883;52.554;13.364;2023-04-25T05:37:27;10.50;99.90
15564;DHT22;7883;52.554;13.364;2023-04-25T05:39:57;10.50;99.90
15564;DHT22;7883;52.554;13.364;2023-04-25T05:42:24;10.50;99.90
15564;DHT22;7883;52.554;13.364;2023-04-25T05:44:51;10.40;99.90
15564;DHT22;7883;52.554;13.364;2023-04-25T05:47:18;10.40;99.90
15564;DHT22;7883;52.554;13.364;2023-04-25T05:49:46;10.40;99.90
15564;DHT22;7883;52.554;13.364;2023-04-25T05:52:13;10.50;99.90
15564;DHT22;7883;52.554;13.364;2023-04-25T05:54:40;10.40;99.90
15564;DHT22;7883;52.554;13.364;2023-04-25T05:57:19;10.40;99.90
15564;DHT22;7883;52.554;13.364;2023-04-25T05:59:46;10.30;99.90
15564;DHT22;7883;52.554;13.364;2023-04-25T06:02:13;10.30;99.90
15564;DHT22;7883;52.554;13.364;2023-04-25T06:04:40;10.30;99.90
15564;DHT22;7883;52.554;13.364;2023-04-25T06:07:07;10.20;99.90
15564;DHT22;7883;52.554;13.364;2023-04-25T06:09:35;10.30;99.90
15564;DHT22;7883;52.554;13.364;2023-04-25T06:12:05;10.40;99.90
15564;DHT22;7883;52.554;13.364;2023-04-25T06:14:33;10.30;99.90
15564;DHT22;7883;52.554;13.364;2023-04-25T06:17:01;10.40;99.90
15564;DHT22;7883;52.554;13.364;2023-04-25T06:19:34;10.40;99.90
15564;DHT22;7883;52.554;13.364;2023-04-25T06:22:03;10.50;99.90
15564;DHT22;7883;52.554;13.364;2023-04-25T06:24:30;10.50;99.90
15564;DHT22;7883;52.554;13.364;2023-04-25T06:26:58;10.50;99.90
15564;DHT22;7883;52.554;13.364;2023-04-25T06:29:25;10.40;99.90
15564;DHT22;7883;52.554;13.364;2023-04-25T06:31:55;10.40;99.90
15564;DHT22;7883;52.554;13.364;2023-04-25T06:34:22;10.40;99.90
15564;DHT22;7883;52.554;13.364;2023-04-25T06:36:49;10.40;99.90
15564;DHT22;7883;52.554;13.364;2023-04-25T06:39:16;10.50;99.90
15564;DHT22;7883;52.554;13.364;2023-04-25T06:41:45;10.60;99.90
15564;DHT22;7883;52.554;13.364;2023-04-25T06:44:12;10.40;99.90
15564;DHT22;7883;52.554;13.364;2023-04-25T06:46:40;10.30;99.90
15564;DHT22;7883;52.554;13.364;2023-04-25T06:49:10;10.30;99.90
15564;DHT22;7883;52.554;13.364;2023-04-25T06:51:37;10.30;99.90
15564;DHT22;7883;52.554;13.364;2023-04-25T06:54:04;10.40;99.90
15564;DHT22;7883;52.554;13.364;2023-04-25T06:56:34;10.30;99.90
15564;DHT22;7883;52.554;13.364;2023-04-25T06:59:03;10.30;99.90
15564;DHT22;7883;52.554;13.364;2023-04-25T07:01:30;10.30;99.90
15564;DHT22;7883;52.554;13.364;2023-04-25T07:03:57;10.20;99.90
15564;DHT22;7883;52.554;13.364;2023-04-25T07:06:25;10.20;99.90
15564;DHT22;7883;52.554;13.364;2023-04-25T07:08:53;10.20;99.90
15564;DHT22;7883;52.554;13.364;2023-04-25T07:11:22;10.30;99.90
15564;DHT22;7883;52.554;13.364;2023-04-25T07:13:49;10.10;99.90
15564;DHT22;7883;52.554;13.364;2023-04-25T07:16:16;10.10;99.90
15564;DHT22;7883;52.554;13.364;2023-04-25T07:18:43;10.10;99.90
15564;DHT22;7883;52.554;13.364;2023-04-25T07:21:10;10.20;99.90
15564;DHT22;7883;52.554;13.364;2023-04-25T07:23:38;10.30;99.90
15564;DHT22;7883;52.554;13.364;2023-04-25T07:26:06;10.40;99.90
15564;DHT22;7883;52.554;13.364;2023-04-25T07:28:33;10.40;99.90
15564;DHT22;7883;52.554;13.364;2023-04-25T07:31:00;10.50;99.90
15564;DHT22;7883;52.554;13.364;2023-04-25T07:33:28;10.50;99.90
15564;DHT22;7883;52.554;13.364;2023-04-25T07:35:55;10.40;99.90
15564;DHT22;7883;52.554;13.364;2023-04-25T07:38:23;10.30;99.90
15564;DHT22;7883;52.554;13.364;2023-04-25T07:40:52;10.20;99.90
15564;DHT22;7883;52.554;13.364;2023-04-25T07:43:19;10.30;99.90
15564;DHT22;7883;52.554;13.364;2023-04-25T07:45:46;10.40;99.90
15564;DHT22;7883;52.554;13.364;2023-04-25T07:48:17;10.50;99.90
15564;DHT22;7883;52.554;13.364;2023-04-25T07:50:44;10.40;99.90
15564;DHT22;7883;52.554;13.364;2023-04-25T07:53:11;10.30;99.90
15564;DHT22;7883;52.554;13.364;2023-04-25T07:55:38;10.30;99.90
15564;DHT22;7883;52.554;13.364;2023-04-25T07:58:07;10.30;99.90
15564;DHT22;7883;52.554;13.364;2023-04-25T08:00:34;10.30;99.90
15564;DHT22;7883;52.554;13.364;2023-04-25T08:03:01;10.30;99.90
15564;DHT22;7883;52.554;13.364;2023-04-25T08:05:29;10.20;99.90
15564;DHT22;7883;52.554;13.364;2023-04-25T08:07:56;10.30;99.90
15564;DHT22;7883;52.554;13.364;2023-04-25T08:10:24;10.30;99.90
15564;DHT22;7883;52.554;13.364;2023-04-25T08:12:51;10.30;99.90
15564;DHT22;7883;52.554;13.364;2023-04-25T08:15:20;10.30;99.90
15564;DHT22;7883;52.554;13.364;2023-04-25T08:17:46;10.40;99.90
15564;DHT22;7883;52.554;13.364;2023-04-25T08:20:13;10.40;99.90
15564;DHT22;7883;52.554;13.364;2023-04-25T08:22:40;10.40;99.90
15564;DHT22;7883;52.554;13.364;2023-04-25T08:25:08;10.60;99.90
15564;DHT22;7883;52.554;13.364;2023-04-25T08:27:35;10.80;99.90
15564;DHT22;7883;52.554;13.364;2023-04-25T08:30:02;11.00;99.90
15564;DHT22;7883;52.554;13.364;2023-04-25T08:32:31;11.00;99.90
15564;DHT22;7883;52.554;13.364;2023-04-25T08:34:59;10.80;99.90
15564;DHT22;7883;52.554;13.364;2023-04-25T08:37:26;10.90;99.90
15564;DHT22;7883;52.554;13.364;2023-04-25T08:39:53;10.90;99.90
15564;DHT22;7883;52.554;13.364;2023-04-25T08:42:21;10.90;99.90
15564;DHT22;7883;52.554;13.364;2023-04-25T08:44:50;10.90;99.90
15564;DHT22;7883;52.554;13.364;2023-04-25T08:47:22;11.00;99.90
15564;DHT22;7883;52.554;13.364;2023-04-25T08:49:53;11.10;99.90
15564;DHT22;7883;52.554;13.364;2023-04-25T08:52:22;11.30;99.90
15564;DHT22;7883;52.554;13.364;2023-04-25T08:54:52;11.50;99.90
15564;DHT22;7883;52.554;13.364;2023-04-25T08:57:21;11.70;99.90
15564;DHT22;7883;52.554;13.364;2023-04-25T08:59:49;11.70;99.90
15564;DHT22;7883;52.554;13.364;2023-04-25T09:02:16;11.60;99.90
15564;DHT22;7883;52.554;13.364;2023-04-25T09:04:46;11.60;99.90
15564;DHT22;7883;52.554;13.364;2023-04-25T09:07:15;11.70;99.90
15564;DHT22;7883;52.554;13.364;2023-04-25T09:09:47;11.80;99.90
15564;DHT22;7883;52.554;13.364;2023-04-25T09:12:14;11.90;99.90
15564;DHT22;7883;52.554;13.364;2023-04-25T09:14:47;12.00;99.90
15564;DHT22;7883;52.554;13.364;2023-04-25T09:17:27;12.10;99.90
15564;DHT22;7883;52.554;13.364;2023-04-25T09:19:55;12.10;99.90
15564;DHT22;7883;52.554;13.364;2023-04-25T09:22:23;12.10;99.90
15564;DHT22;7883;52.554;13.364;2023-04-25T09:24:50;12.00;99.90
15564;DHT22;7883;52.554;13.364;2023-04-25T09:27:19;12.10;99.90
15564;DHT22;7883;52.554;13.364;2023-04-25T09:29:48;12.10;99.90
15564;DHT22;7883;52.554;13.364;2023-04-25T09:32:23;12.10;99.90
15564;DHT22;7883;52.554;13.364;2023-04-25T09:34:51;12.20;99.90
15564;DHT22;7883;52.554;13.364;2023-04-25T09:37:20;12.20;99.90
15564;DHT22;7883;52.554;13.364;2023-04-25T09:39:50;11.90;99.90
15564;DHT22;7883;52.554;13.364;2023-04-25T09:42:18;11.90;99.90
15564;DHT22;7883;52.554;13.364;2023-04-25T09:44:45;11.80;99.90
15564;DHT22;7883;52.554;13.364;2023-04-25T09:47:14;11.60;99.90
15564;DHT22;7883;52.554;13.364;2023-04-25T09:49:42;11.40;99.90
15564;DHT22;7883;52.554;13.364;2023-04-25T09:52:13;11.30;99.90
15564;DHT22;7883;52.554;13.364;2023-04-25T09:54:41;11.40;99.90
15564;DHT22;7883;52.554;13.364;2023-04-25T09:57:12;11.40;99.90
15564;DHT22;7883;52.554;13.364;2023-04-25T09:59:49;11.40;99.90
15564;DHT22;7883;52.554;13.364;2023-04-25T10:02:30;11.60;99.90
15564;DHT22;7883;52.554;13.364;2023-04-25T10:05:26;11.70;99.90
15564;DHT22;7883;52.554;13.364;2023-04-25T10:07:58;11.60;99.90
15564;DHT22;7883;52.554;13.364;2023-04-25T10:10:28;11.70;99.90
15564;DHT22;7883;52.554;13.364;2023-04-25T10:13:06;11.60;99.90
15564;DHT22;7883;52.554;13.364;2023-04-25T10:15:35;11.60;99.90
15564;DHT22;7883;52.554;13.364;2023-04-25T10:18:07;11.80;99.90
15564;DHT22;7883;52.554;13.364;2023-04-25T10:20:37;11.90;99.90
15564;DHT22;7883;52.554;13.364;2023-04-25T10:23:17;11.90;99.90
15564;DHT22;7883;52.554;13.364;2023-04-25T10:25:50;11.80;99.90
15564;DHT22;7883;52.554;13.364;2023-04-25T10:28:22;11.50;99.90
15564;DHT22;7883;52.554;13.364;2023-04-25T10:31:03;11.50;99.90
15564;DHT22;7883;52.554;13.364;2023-04-25T10:33:34;11.50;99.90
15564;DHT22;7883;52.554;13.364;2023-04-25T10:36:12;11.50;99.90
15564;DHT22;7883;52.554;13.364;2023-04-25T10:38:43;11.40;99.90
15564;DHT22;7883;52.554;13.364;2023-04-25T10:41:12;11.50;99.90
15564;DHT22;7883;52.554;13.364;2023-04-25T10:43:47;11.80;99.90
15564;DHT22;7883;52.554;13.364;2023-04-25T10:46:19;12.00;99.90
15564;DHT22;7883;52.554;13.364;2023-04-25T10:49:04;12.10;99.90
15564;DHT22;7883;52.554;13.364;2023-04-25T10:51:36;12.10;99.90
15564;DHT22;7883;52.554;13.364;2023-04-25T10:54:04;12.10;99.90
15564;DHT22;7883;52.554;13.364;2023-04-25T10:56:33;12.10;99.90
15564;DHT22;7883;52.554;13.364;2023-04-25T10:59:07;12.00;99.90
15564;DHT22;7883;52.554;13.364;2023-04-25T11:01:37;12.10;99.90
15564;DHT22;7883;52.554;13.364;2023-04-25T11:04:04;12.50;99.90
15564;DHT22;7883;52.554;13.364;2023-04-25T11:06:40;12.60;99.90
15564;DHT22;7883;52.554;13.364;2023-04-25T11:09:12;12.50;99.90
15564;DHT22;7883;52.554;13.364;2023-04-25T11:11:39;12.30;99.90
15564;DHT22;7883;52.554;13.364;2023-04-25T11:14:08;12.00;99.90
15564;DHT22;7883;52.554;13.364;2023-04-25T11:16:35;11.60;99.90
15564;DHT22;7883;52.554;13.364;2023-04-25T11:19:02;11.30;99.90
15564;DHT22;7883;52.554;13.364;2023-04-25T11:21:30;11.30;99.90
15564;DHT22;7883;52.554;13.364;2023-04-25T11:23:59;11.30;99.90
15564;DHT22;7883;52.554;13.364;2023-04-25T11:26:27;11.10;99.90
15564;DHT22;7883;52.554;13.364;2023-04-25T11:28:59;11.10;99.90
15564;DHT22;7883;52.554;13.364;2023-04-25T11:31:28;11.20;99.90
15564;DHT22;7883;52.554;13.364;2023-04-25T11:33:57;11.20;99.90
15564;DHT22;7883;52.554;13.364;2023-04-25T11:36:24;11.20;99.90
15564;DHT22;7883;52.554;13.364;2023-04-25T11:38:53;11.40;99.90
15564;DHT22;7883;52.554;13.364;2023-04-25T11:41:20;11.60;99.90
15564;DHT22;7883;52.554;13.364;2023-04-25T11:43:47;11.60;99.90
15564;DHT22;7883;52.554;13.364;2023-04-25T11:46:15;11.70;99.90
15564;DHT22;7883;52.554;13.364;2023-04-25T11:48:43;11.90;99.90
15564;DHT22;7883;52.554;13.364;2023-04-25T11:51:11;12.00;99.90
15564;DHT22;7883;52.554;13.364;2023-04-25T11:53:41;11.70;99.90
15564;DHT22;7883;52.554;13.364;2023-04-25T11:56:10;11.70;99.90
15564;DHT22;7883;52.554;13.364;2023-04-25T11:58:59;11.70;99.90
15564;DHT22;7883;52.554;13.364;2023-04-25T12:01:30;11.70;99.90
15564;DHT22;7883;52.554;13.364;2023-04-25T12:04:10;12.10;99.90
15564;DHT22;7883;52.554;13.364;2023-04-25T12:06:37;12.20;99.90
15564;DHT22;7883;52.554;13.364;2023-04-25T12:09:07;12.10;99.90
15564;DHT22;7883;52.554;13.364;2023-04-25T12:11:40;11.90;99.90
15564;DHT22;7883;52.554;13.364;2023-04-25T12:14:07;11.70;99.90
15564;DHT22;7883;52.554;13.364;2023-04-25T12:16:44;11.60;99.90
15564;DHT22;7883;52.554;13.364;2023-04-25T12:19:15;11.60;99.90
15564;DHT22;7883;52.554;13.364;2023-04-25T12:21:43;11.60;99.90
15564;DHT22;7883;52.554;13.364;2023-04-25T12:24:11;11.70;99.90
15564;DHT22;7883;52.554;13.364;2023-04-25T12:26:51;11.70;99.90
15564;DHT22;7883;52.554;13.364;2023-04-25T12:29:20;11.70;99.90
15564;DHT22;7883;52.554;13.364;2023-04-25T12:31:48;11.80;99.90
15564;DHT22;7883;52.554;13.364;2023-04-25T12:34:16;11.90;99.90
15564;DHT22;7883;52.554;13.364;2023-04-25T12:36:43;11.90;99.90
15564;DHT22;7883;52.554;13.364;2023-04-25T12:39:14;11.80;99.90
15564;DHT22;7883;52.554;13.364;2023-04-25T12:41:42;11.80;99.90
15564;DHT22;7883;52.554;13.364;2023-04-25T12:44:09;11.90;99.90
15564;DHT22;7883;52.554;13.364;2023-04-25T12:46:36;11.90;99.90
15564;DHT22;7883;52.554;13.364;2023-04-25T12:49:03;11.80;99.90
15564;DHT22;7883;52.554;13.364;2023-04-25T12:51:33;11.80;99.90
15564;DHT22;7883;52.554;13.364;2023-04-25T12:54:00;11.80;99.90
15564;DHT22;7883;52.554;13.364;2023-04-25T12:56:28;11.80;99.90
15564;DHT22;7883;52.554;13.364;2023-04-25T12:58:55;11.90;99.90
15564;DHT22;7883;52.554;13.364;2023-04-25T13:01:22;11.90;99.90
15564;DHT22;7883;52.554;13.364;2023-04-25T13:03:49;12.10;99.90
15564;DHT22;7883;52.554;13.364;2023-04-25T13:06:17;12.10;99.90
15564;DHT22;7883;52.554;13.364;2023-04-25T13:08:46;12.10;99.90
15564;DHT22;7883;52.554;13.364;2023-04-25T13:11:13;12.10;99.90
15564;DHT22;7883;52.554;13.364;2023-04-25T13:13:41;12.20;99.90
15564;DHT22;7883;52.554;13.364;2023-04-25T13:16:08;12.50;99.90
15564;DHT22;7883;52.554;13.364;2023-04-25T13:18:36;12.90;99.90
15564;DHT22;7883;52.554;13.364;2023-04-25T13:21:03;12.80;99.90
15564;DHT22;7883;52.554;13.364;2023-04-25T13:23:30;12.70;99.90
15564;DHT22;7883;52.554;13.364;2023-04-25T13:25:59;12.70;99.90
15564;DHT22;7883;52.554;13.364;2023-04-25T13:28:27;12.60;99.90
15564;DHT22;7883;52.554;13.364;2023-04-25T13:30:55;12.30;99.90
15564;DHT22;7883;52.554;13.364;2023-04-25T13:33:21;12.20;99.90
15564;DHT22;7883;52.554;13.364;2023-04-25T13:35:49;12.10;99.90
15564;DHT22;7883;52.554;13.364;2023-04-25T13:38:20;11.80;99.90
15564;DHT22;7883;52.554;13.364;2023-04-25T13:40:47;11.80;99.90
15564;DHT22;7883;52.554;13.364;2023-04-25T13:43:16;11.80;99.90
15564;DHT22;7883;52.554;13.364;2023-04-25T13:45:43;11.90;99.90
15564;DHT22;7883;52.554;13.364;2023-04-25T13:48:11;11.90;99.90
15564;DHT22;7883;52.554;13.364;2023-04-25T13:50:38;11.90;99.90
15564;DHT22;7883;52.554;13.364;2023-04-25T13:53:05;11.90;99.90
15564;DHT22;7883;52.554;13.364;2023-04-25T13:55:33;11.90;99.90
15564;DHT22;7883;52.554;13.364;2023-04-25T13:58:00;12.00;99.90
15564;DHT22;7883;52.554;13.364;2023-04-25T14:00:34;11.90;99.90
15564;DHT22;7883;52.554;13.364;2023-04-25T14:03:04;12.00;99.90
15564;DHT22;7883;52.554;13.364;2023-04-25T14:05:33;12.00;99.90
15564;DHT22;7883;52.554;13.364;2023-04-25T14:08:04;11.90;99.90
15564;DHT22;7883;52.554;13.364;2023-04-25T14:10:31;11.60;99.90
15564;DHT22;7883;52.554;13.364;2023-04-25T14:12:58;11.70;99.90
15564;DHT22;7883;52.554;13.364;2023-04-25T14:15:26;11.60;99.90
15564;DHT22;7883;52.554;13.364;2023-04-25T14:17:54;11.50;99.90
15564;DHT22;7883;52.554;13.364;2023-04-25T14:20:21;11.60;99.90
15564;DHT22;7883;52.554;13.364;2023-04-25T14:22:49;11.70;99.90
15564;DHT22;7883;52.554;13.364;2023-04-25T14:25:17;11.80;99.90
15564;DHT22;7883;52.554;13.364;2023-04-25T14:27:44;11.80;99.90
15564;DHT22;7883;52.554;13.364;2023-04-25T14:30:15;11.90;99.90
15564;DHT22;7883;52.554;13.364;2023-04-25T14:32:42;11.80;99.90
15564;DHT22;7883;52.554;13.364;2023-04-25T14:35:11;11.80;99.90
15564;DHT22;7883;52.554;13.364;2023-04-25T14:37:38;11.70;99.90
15564;DHT22;7883;52.554;13.364;2023-04-25T14:40:07;11.80;99.90
15564;DHT22;7883;52.554;13.364;2023-04-25T14:42:36;11.90;99.90
15564;DHT22;7883;52.554;13.364;2023-04-25T14:45:03;11.90;99.90
15564;DHT22;7883;52.554;13.364;2023-04-25T14:47:30;11.90;99.90
15564;DHT22;7883;52.554;13.364;2023-04-25T14:49:57;11.80;99.90
15564;DHT22;7883;52.554;13.364;2023-04-25T14:52:25;11.80;99.90
15564;DHT22;7883;52.554;13.364;2023-04-25T14:54:53;11.60;99.90
15564;DHT22;7883;52.554;13.364;2023-04-25T14:57:20;11.50;99.90
15564;DHT22;7883;52.554;13.364;2023-04-25T14:59:47;11.30;99.90
15564;DHT22;7883;52.554;13.364;2023-04-25T15:02:14;11.20;99.90
15564;DHT22;7883;52.554;13.364;2023-04-25T15:04:41;11.10;99.90
15564;DHT22;7883;52.554;13.364;2023-04-25T15:07:08;11.00;99.90
15564;DHT22;7883;52.554;13.364;2023-04-25T15:09:37;10.90;99.90
15564;DHT22;7883;52.554;13.364;2023-04-25T15:12:04;10.80;99.90
15564;DHT22;7883;52.554;13.364;2023-04-25T15:14:31;10.90;99.90
15564;DHT22;7883;52.554;13.364;2023-04-25T15:16:59;11.00;99.90
15564;DHT22;7883;52.554;13.364;2023-04-25T15:19:26;11.10;99.90
15564;DHT22;7883;52.554;13.364;2023-04-25T15:21:53;11.20;99.90
15564;DHT22;7883;52.554;13.364;2023-04-25T15:24:20;11.30;99.90
15564;DHT22;7883;52.554;13.364;2023-04-25T15:26:49;11.40;99.90
15564;DHT22;7883;52.554;13.364;2023-04-25T15:29:16;11.60;99.90
15564;DHT22;7883;52.554;13.364;2023-04-25T15:31:43;11.60;99.90
15564;DHT22;7883;52.554;13.364;2023-04-25T15:34:10;11.50;99.90
15564;DHT22;7883;52.554;13.364;2023-04-25T15:36:37;11.50;99.90